createdAt,value
2023-04-15T00:01:04.522Z,1.93
2023-04-15T00:04:07.437Z,1.83
2023-04-15T00:07:11.748Z,2.17
2023-04-15T00:10:15.179Z,2.30
2023-04-15T00:13:17.980Z,2.23
2023-04-15T00:16:21.337Z,2.07
2023-04-15T00:19:24.174Z,2.47
2023-04-15T00:22:28.333Z,2.10
2023-04-15T00:25:31.115Z,2.53
2023-04-15T00:28:33.960Z,1.97
2023-04-15T00:31:36.773Z,2.07
2023-04-15T00:34:39.585Z,2.43
2023-04-15T00:37:46.064Z,2.00
2023-04-15T00:40:49.581Z,2.00
2023-04-15T00:43:52.680Z,1.77
2023-04-15T00:46:55.535Z,2.00
2023-04-15T00:49:59.162Z,2.17
2023-04-15T00:53:03.317Z,2.47
2023-04-15T00:56:07.099Z,2.17
2023-04-15T00:59:10.209Z,2.30
2023-04-15T01:02:13.193Z,2.43
2023-04-15T01:05:18.616Z,2.43
2023-04-15T01:08:22.776Z,2.33
2023-04-15T01:11:26.535Z,2.70
2023-04-15T01:14:29.758Z,2.97
2023-04-15T01:17:32.890Z,2.80
2023-04-15T01:20:36.328Z,2.90
2023-04-15T01:23:40.792Z,3.37
2023-04-15T01:26:45.044Z,3.20
2023-04-15T01:29:48.194Z,3.60
2023-04-15T01:32:51.056Z,3.10
2023-04-15T01:35:54.043Z,2.87
2023-04-15T01:38:57.744Z,2.60
2023-04-15T01:42:02.349Z,2.73
2023-04-15T01:45:06.322Z,2.67
2023-04-15T01:48:09.778Z,2.97
2023-04-15T01:51:12.862Z,3.03
2023-04-15T01:54:15.670Z,2.40
2023-04-15T01:57:19.827Z,2.60
2023-04-15T02:00:23.161Z,3.03
2023-04-15T02:03:26.463Z,2.53
2023-04-15T02:06:29.306Z,2.97
2023-04-15T02:09:32.301Z,3.40
2023-04-15T02:12:36.804Z,2.83
2023-04-15T02:15:39.627Z,2.63
2023-04-15T02:18:42.998Z,3.13
2023-04-15T02:21:45.796Z,2.90
2023-04-15T02:24:48.641Z,2.97
2023-04-15T02:27:53.230Z,2.60
2023-04-15T02:30:57.617Z,2.57
2023-04-15T02:34:00.407Z,2.90
2023-04-15T02:37:03.811Z,2.97
2023-04-15T02:40:08.046Z,3.40
2023-04-15T02:43:12.497Z,2.53
2023-04-15T02:46:15.331Z,3.13
2023-04-15T02:49:18.172Z,2.50
2023-04-15T02:52:21.196Z,2.93
2023-04-15T02:55:24.055Z,3.20
2023-04-15T02:58:28.207Z,2.67
2023-04-15T03:01:31.051Z,3.13
2023-04-15T03:04:33.907Z,2.93
2023-04-15T03:07:36.701Z,2.90
2023-04-15T03:10:39.474Z,3.20
2023-04-15T03:13:44.125Z,3.10
2023-04-15T03:16:46.953Z,3.60
2023-04-15T03:19:49.730Z,3.43
2023-04-15T03:22:52.654Z,3.07
2023-04-15T03:25:57.308Z,2.20
2023-04-15T03:29:01.793Z,2.57
2023-04-15T03:32:05.151Z,2.27
2023-04-15T03:35:08.329Z,2.53
2023-04-15T03:38:11.173Z,2.60
2023-04-15T03:41:14.144Z,2.33
2023-04-15T03:44:18.288Z,2.00
2023-04-15T03:47:21.174Z,2.83
2023-04-15T03:50:24.171Z,2.63
2023-04-15T03:53:26.958Z,2.50
2023-04-15T03:56:29.777Z,2.83
2023-04-15T03:59:33.927Z,3.03
2023-04-15T04:02:36.939Z,3.10
2023-04-15T04:05:41.529Z,2.60
2023-04-15T04:08:44.631Z,2.60
2023-04-15T04:11:47.433Z,2.63
2023-04-15T04:14:51.558Z,2.07
2023-04-15T04:17:54.409Z,2.80
2023-04-15T04:20:57.233Z,2.53
2023-04-15T04:24:00.540Z,2.90
2023-04-15T04:27:03.390Z,2.60
2023-04-15T04:30:09.156Z,2.30
2023-04-15T04:33:11.974Z,1.90
2023-04-15T04:36:14.767Z,2.03
2023-04-15T04:39:17.560Z,2.67
2023-04-15T04:42:20.384Z,2.73
2023-04-15T04:45:24.542Z,2.83
2023-04-15T04:48:27.347Z,2.37
2023-04-15T04:51:30.965Z,2.97
2023-04-15T04:54:33.790Z,2.83
2023-04-15T04:57:37.690Z,2.03
2023-04-15T05:00:42.785Z,1.93
2023-04-15T05:03:45.830Z,2.27
2023-04-15T05:06:48.756Z,1.77
2023-04-15T05:09:51.553Z,2.37
2023-04-15T05:12:54.336Z,3.20
2023-04-15T05:15:58.504Z,3.80
2023-04-15T05:19:01.498Z,3.70
2023-04-15T05:22:04.538Z,2.97
2023-04-15T05:25:08.557Z,2.40
2023-04-15T05:28:12.406Z,2.13
2023-04-15T05:31:16.664Z,2.70
2023-04-15T05:34:19.724Z,2.10
2023-04-15T05:37:22.525Z,1.70
2023-04-15T05:40:25.320Z,2.00
2023-04-15T05:43:28.126Z,1.70
2023-04-15T05:46:32.291Z,5.77
2023-04-15T05:49:35.591Z,2.87
2023-04-15T05:52:38.394Z,2.00
2023-04-15T05:55:41.201Z,2.13
2023-04-15T05:58:44.013Z,1.63
2023-04-15T06:01:48.263Z,1.70
2023-04-15T06:04:51.224Z,1.87
2023-04-15T06:07:54.051Z,1.93
2023-04-15T06:10:56.935Z,1.67
2023-04-15T06:13:59.780Z,1.30
2023-04-15T06:17:03.904Z,1.87
2023-04-15T06:20:08.441Z,1.37
2023-04-15T06:23:11.320Z,1.90
2023-04-15T06:26:14.100Z,1.20
2023-04-15T06:29:16.915Z,1.50
2023-04-15T06:32:21.264Z,1.50
2023-04-15T06:35:24.332Z,2.60
2023-04-15T06:38:27.154Z,2.00
2023-04-15T06:41:30.015Z,1.37
2023-04-15T06:44:33.908Z,1.70
2023-04-15T06:47:38.319Z,0.77
2023-04-15T06:50:41.478Z,1.10
2023-04-15T06:53:44.264Z,0.90
2023-04-15T06:56:47.495Z,1.20
2023-04-15T06:59:50.348Z,2.13
2023-04-15T07:02:55.260Z,1.90
2023-04-15T07:05:58.666Z,1.67
2023-04-15T07:09:01.971Z,16.17
2023-04-15T07:12:05.195Z,14.73
2023-04-15T07:15:08.808Z,20.63
2023-04-15T07:18:13.628Z,4.50
2023-04-15T07:21:16.475Z,4.20
2023-04-15T07:24:20.714Z,2.23
2023-04-15T07:27:23.552Z,1.30
2023-04-15T07:30:26.363Z,1.10
2023-04-15T07:33:30.999Z,1.00
2023-04-15T07:36:33.811Z,0.90
2023-04-15T07:39:37.030Z,1.20
2023-04-15T07:42:41.376Z,1.33
2023-04-15T07:45:44.492Z,1.00
2023-04-15T07:48:48.781Z,1.20
2023-04-15T07:51:51.596Z,0.97
2023-04-15T07:54:54.381Z,1.27
2023-04-15T07:57:57.571Z,1.00
2023-04-15T08:01:00.819Z,0.87
2023-04-15T08:04:05.155Z,1.67
2023-04-15T08:07:08.045Z,1.30
2023-04-15T08:10:12.091Z,1.20
2023-04-15T08:13:14.963Z,1.10
2023-04-15T08:16:20.446Z,0.90
2023-04-15T08:19:24.572Z,1.43
2023-04-15T08:22:27.572Z,2.43
2023-04-15T08:25:30.447Z,1.30
2023-04-15T08:28:33.476Z,1.43
2023-04-15T08:31:36.388Z,1.10
2023-04-15T08:34:40.600Z,1.30
2023-04-15T08:37:43.731Z,1.63
2023-04-15T08:40:47.889Z,1.20
2023-04-15T08:43:55.604Z,0.90
2023-04-15T08:47:02.013Z,1.30
2023-04-15T08:50:09.593Z,1.40
2023-04-15T08:53:13.089Z,1.17
2023-04-15T08:56:17.398Z,1.00
2023-04-15T08:59:21.425Z,2.20
2023-04-15T09:02:26.228Z,1.37
2023-04-15T09:05:34.012Z,1.83
2023-04-15T09:08:36.938Z,1.57
2023-04-15T09:11:40.324Z,1.20
2023-04-15T09:14:44.391Z,1.43
2023-04-15T09:17:48.645Z,1.73
2023-04-15T09:20:54.826Z,1.53
2023-04-15T09:24:00.340Z,1.93
2023-04-15T09:27:03.666Z,1.77
2023-04-15T09:30:10.570Z,1.97
2023-04-15T09:33:16.553Z,1.70
2023-04-15T09:36:21.079Z,1.70
2023-04-15T09:39:23.916Z,3.13
2023-04-15T09:42:27.967Z,2.40
2023-04-15T09:45:31.811Z,3.40
2023-04-15T09:48:34.625Z,2.77
2023-04-15T09:51:39.146Z,2.63
2023-04-15T09:54:41.948Z,2.03
2023-04-15T09:57:47.161Z,1.57
2023-04-15T10:00:51.382Z,5.20
2023-04-15T10:03:57.171Z,1.60
2023-04-15T10:07:02.108Z,1.50
2023-04-15T10:10:06.354Z,2.07
2023-04-15T10:13:10.438Z,2.27
2023-04-15T10:16:16.863Z,2.03
2023-04-15T10:19:22.968Z,2.90
2023-04-15T10:22:29.151Z,2.40
2023-04-15T10:25:34.536Z,2.00
2023-04-15T10:28:37.352Z,2.53
2023-04-15T10:31:41.123Z,1.97
2023-04-15T10:34:44.542Z,2.57
2023-04-15T10:37:48.880Z,2.27
2023-04-15T10:40:51.819Z,2.27
2023-04-15T10:43:56.190Z,2.10
2023-04-15T10:47:00.024Z,2.50
2023-04-15T10:50:03.568Z,2.57
2023-04-15T10:53:11.390Z,3.00
2023-04-15T10:56:14.204Z,2.83
2023-04-15T10:59:17.842Z,2.70
2023-04-15T11:02:20.873Z,2.80
2023-04-15T11:05:44.231Z,3.30
2023-04-15T11:09:03.395Z,2.80
2023-04-15T11:12:08.424Z,2.83
2023-04-15T11:15:30.368Z,3.10
2023-04-15T11:18:35.089Z,2.93
2023-04-15T11:21:37.943Z,3.07
2023-04-15T11:24:50.499Z,3.07
2023-04-15T11:27:54.732Z,3.53
2023-04-15T11:30:58.191Z,3.10
2023-04-15T11:34:02.834Z,4.33
2023-04-15T11:37:07.829Z,3.60
2023-04-15T11:40:12.812Z,3.43
2023-04-15T11:43:18.627Z,3.80
2023-04-15T11:46:22.869Z,2.97
2023-04-15T11:49:30.326Z,2.80
2023-04-15T11:52:33.193Z,3.17
2023-04-15T11:55:46.332Z,3.47
2023-04-15T11:58:52.708Z,2.77
2023-04-15T12:01:56.091Z,3.17
2023-04-15T12:05:05.293Z,2.90
2023-04-15T12:08:08.333Z,2.77
2023-04-15T12:11:12.609Z,3.63
2023-04-15T12:14:22.310Z,2.83
2023-04-15T12:17:25.181Z,2.90
2023-04-15T12:20:27.985Z,3.07
2023-04-15T12:23:30.892Z,2.80
2023-04-15T12:26:37.898Z,2.70
2023-04-15T12:29:41.946Z,2.60
2023-04-15T12:32:47.220Z,2.13
2023-04-15T12:35:50.050Z,1.47
2023-04-15T12:38:52.955Z,2.00
2023-04-15T12:41:57.938Z,2.00
2023-04-15T12:45:00.822Z,2.00
2023-04-15T12:48:03.684Z,3.33
2023-04-15T12:51:06.679Z,1.87
2023-04-15T12:54:09.530Z,1.70
2023-04-15T12:57:13.659Z,1.73
2023-04-15T13:00:17.583Z,1.40
2023-04-15T13:03:20.662Z,1.30
2023-04-15T13:06:24.065Z,2.10
2023-04-15T13:09:27.081Z,1.53
2023-04-15T13:12:31.336Z,2.40
2023-04-15T13:15:34.141Z,2.27
2023-04-15T13:18:36.994Z,2.23
2023-04-15T13:21:39.781Z,1.97
2023-04-15T13:24:42.636Z,2.30
2023-04-15T13:27:47.141Z,2.77
2023-04-15T13:30:49.986Z,2.43
2023-04-15T13:33:52.795Z,2.30
2023-04-15T13:36:55.697Z,2.93
2023-04-15T13:39:58.617Z,3.33
2023-04-15T13:43:03.359Z,2.80
2023-04-15T13:46:06.915Z,2.70
2023-04-15T13:49:09.851Z,3.27
2023-04-15T13:52:12.734Z,2.60
2023-04-15T13:55:19.872Z,3.47
2023-04-15T13:58:26.015Z,2.37
2023-04-15T14:01:28.935Z,2.67
2023-04-15T14:04:33.387Z,2.60
2023-04-15T14:07:36.490Z,2.10
2023-04-15T14:10:39.748Z,2.20
2023-04-15T14:13:43.875Z,1.83
2023-04-15T14:16:47.838Z,2.30
2023-04-15T14:19:50.703Z,2.03
2023-04-15T14:22:53.497Z,2.37
2023-04-15T14:25:56.357Z,1.87
2023-04-15T14:29:00.622Z,2.30
2023-04-15T14:32:11.285Z,2.10
2023-04-15T14:35:15.408Z,1.50
2023-04-15T14:38:18.331Z,1.63
2023-04-15T14:41:22.333Z,2.00
2023-04-15T14:44:26.526Z,1.83
2023-04-15T14:47:29.328Z,2.27
2023-04-15T14:50:32.242Z,2.30
2023-04-15T14:53:35.192Z,2.30
2023-04-15T14:56:38.000Z,2.43
2023-04-15T14:59:42.154Z,2.37
2023-04-15T15:02:47.319Z,2.77
2023-04-15T15:05:50.331Z,3.10
2023-04-15T15:08:53.219Z,3.17
2023-04-15T15:11:56.920Z,2.40
2023-04-15T15:15:03.061Z,2.27
2023-04-15T15:18:08.143Z,2.37
2023-04-15T15:21:11.403Z,3.00
2023-04-15T15:24:14.215Z,2.90
2023-04-15T15:27:17.078Z,2.30
2023-04-15T15:30:21.379Z,2.50
2023-04-15T15:33:24.292Z,2.77
2023-04-15T15:36:27.344Z,3.13
2023-04-15T15:39:30.384Z,2.80
2023-04-15T15:42:33.492Z,3.10
2023-04-15T15:45:37.728Z,3.70
2023-04-15T15:48:40.558Z,3.30
2023-04-15T15:51:43.502Z,3.10
2023-04-15T15:54:46.329Z,2.07
2023-04-15T15:57:49.801Z,2.80
2023-04-15T16:00:54.523Z,2.90
2023-04-15T16:03:57.450Z,2.83
2023-04-15T16:07:00.333Z,3.67
2023-04-15T16:10:03.395Z,3.10
2023-04-15T16:13:06.348Z,2.97
2023-04-15T16:16:10.619Z,3.73
2023-04-15T16:19:13.468Z,6.43
2023-04-15T16:22:16.277Z,6.87
2023-04-15T16:25:19.556Z,10.43
2023-04-15T16:28:26.798Z,11.90
2023-04-15T16:31:31.978Z,5.13
2023-04-15T16:34:35.350Z,7.90
2023-04-15T16:37:38.130Z,7.00
2023-04-15T16:40:41.252Z,5.30
2023-04-15T16:43:44.051Z,3.00
2023-04-15T16:46:48.227Z,1.83
2023-04-15T16:49:51.263Z,1.90
2023-04-15T16:52:54.056Z,2.10
2023-04-15T16:55:56.872Z,2.30
2023-04-15T16:58:59.701Z,2.10
2023-04-15T17:02:03.940Z,1.73
2023-04-15T17:05:07.839Z,1.70
2023-04-15T17:08:11.119Z,1.83
2023-04-15T17:11:15.113Z,2.17
2023-04-15T17:14:17.938Z,2.13
2023-04-15T17:17:22.889Z,1.53
2023-04-15T17:20:26.449Z,2.30
2023-04-15T17:23:29.257Z,2.53
2023-04-15T17:26:32.104Z,2.33
2023-04-15T17:29:34.979Z,2.20
2023-04-15T17:32:40.233Z,2.70
2023-04-15T17:35:43.189Z,2.43
2023-04-15T17:38:45.990Z,2.60
2023-04-15T17:41:48.925Z,2.20
2023-04-15T17:44:51.809Z,1.90
2023-04-15T17:47:55.996Z,2.37
2023-04-15T17:50:58.836Z,1.90
2023-04-15T17:54:01.649Z,2.20
2023-04-15T17:57:04.515Z,2.40
2023-04-15T18:00:10.134Z,2.57
2023-04-15T18:03:14.780Z,2.87
2023-04-15T18:06:17.795Z,2.57
2023-04-15T18:09:20.834Z,2.70
2023-04-15T18:12:23.686Z,1.93
2023-04-15T18:15:26.594Z,2.47
2023-04-15T18:18:30.732Z,1.83
2023-04-15T18:21:33.533Z,2.40
2023-04-15T18:24:36.369Z,2.80
2023-04-15T18:27:39.939Z,2.83
2023-04-15T18:30:42.853Z,2.50
2023-04-15T18:33:47.017Z,2.53
2023-04-15T18:36:49.894Z,2.20
2023-04-15T18:39:54.068Z,3.00
2023-04-15T18:42:56.883Z,3.10
2023-04-15T18:46:01.809Z,2.90
2023-04-15T18:49:06.198Z,2.80
2023-04-15T18:52:09.701Z,3.10
2023-04-15T18:55:12.506Z,3.13
2023-04-15T18:58:15.535Z,3.23
2023-04-15T19:01:18.392Z,3.00
2023-04-15T19:04:25.517Z,2.97
2023-04-15T19:07:30.679Z,3.30
2023-04-15T19:10:34.824Z,4.00
2023-04-15T19:13:39.993Z,3.20
2023-04-15T19:16:42.848Z,2.60
2023-04-15T19:19:49.358Z,3.53
2023-04-15T19:22:52.420Z,3.97
2023-04-15T19:25:55.487Z,3.53
2023-04-15T19:28:59.131Z,3.13
2023-04-15T19:32:01.987Z,4.40
2023-04-15T19:35:09.917Z,5.07
2023-04-15T19:38:14.093Z,5.10
2023-04-15T19:41:16.876Z,5.67
2023-04-15T19:44:19.834Z,5.10
2023-04-15T19:47:25.920Z,6.77
2023-04-15T19:50:30.099Z,6.23
2023-04-15T19:53:36.927Z,3.80
2023-04-15T19:56:39.752Z,3.97
2023-04-15T19:59:45.193Z,2.83
2023-04-15T20:02:51.366Z,3.63
2023-04-15T20:05:56.925Z,4.50
2023-04-15T20:08:59.851Z,3.43
2023-04-15T20:12:45.008Z,3.93
2023-04-15T20:15:27.341Z,3.57
2023-04-15T20:18:30.727Z,3.37
2023-04-15T20:21:35.018Z,3.13
2023-04-15T20:24:37.935Z,4.10
2023-04-15T20:27:40.906Z,2.77
2023-04-15T20:30:43.760Z,3.17
2023-04-15T20:33:46.584Z,2.87
2023-04-15T20:36:50.720Z,2.60
2023-04-15T20:39:53.729Z,2.80
2023-04-15T20:42:56.612Z,2.27
2023-04-15T20:46:07.030Z,2.70
2023-04-15T20:49:20.518Z,3.00
2023-04-15T20:52:24.973Z,2.63
2023-04-15T20:55:30.183Z,2.50
2023-04-15T20:58:33.526Z,2.40
2023-04-15T21:01:36.359Z,2.17
2023-04-15T21:04:39.257Z,1.73
2023-04-15T21:07:43.421Z,2.63
2023-04-15T21:10:46.289Z,2.20
2023-04-15T21:13:50.671Z,2.97
2023-04-15T21:16:53.634Z,2.73
2023-04-15T21:19:56.397Z,2.90
2023-04-15T21:23:00.592Z,2.57
2023-04-15T21:26:03.537Z,3.67
2023-04-15T21:29:08.745Z,2.70
2023-04-15T21:32:13.465Z,3.10
2023-04-15T21:35:16.409Z,3.03
2023-04-15T21:38:22.733Z,2.53
2023-04-15T21:41:26.509Z,2.57
2023-04-15T21:44:29.612Z,2.17
2023-04-15T21:47:32.640Z,1.80
2023-04-15T21:50:59.373Z,2.33
2023-04-15T21:54:03.559Z,2.10
2023-04-15T21:57:06.591Z,2.23
2023-04-15T22:00:11.468Z,1.70
2023-04-15T22:03:14.591Z,1.93
2023-04-15T22:06:17.494Z,1.70
2023-04-15T22:09:21.611Z,1.53
2023-04-15T22:12:24.436Z,1.20
2023-04-15T22:15:27.222Z,1.37
2023-04-15T22:18:30.057Z,2.00
2023-04-15T22:21:33.266Z,1.60
2023-04-15T22:24:39.862Z,1.60
2023-04-15T22:27:43.767Z,2.00
2023-04-15T22:30:46.566Z,2.20
2023-04-15T22:33:49.344Z,1.40
2023-04-15T22:36:53.006Z,1.33
2023-04-15T22:39:57.290Z,1.40
2023-04-15T22:43:00.546Z,1.50
2023-04-15T22:46:03.405Z,1.10
2023-04-15T22:49:09.031Z,0.80
2023-04-15T22:52:17.092Z,1.00
2023-04-15T22:55:28.013Z,0.77
2023-04-15T22:58:31.977Z,0.90
2023-04-15T23:01:34.958Z,1.10
2023-04-15T23:04:37.985Z,1.10
2023-04-15T23:07:41.037Z,0.93
2023-04-15T23:10:45.218Z,0.90
2023-04-15T23:13:48.026Z,0.80
2023-04-15T23:16:51.014Z,1.20
2023-04-15T23:19:53.839Z,0.97
2023-04-15T23:22:56.608Z,1.20
2023-04-15T23:26:01.287Z,1.07
2023-04-15T23:29:04.059Z,1.07
2023-04-15T23:32:07.536Z,1.77
2023-04-15T23:35:10.819Z,1.50
2023-04-15T23:38:13.576Z,1.30
2023-04-15T23:41:17.708Z,1.53
2023-04-15T23:44:20.865Z,1.53
2023-04-15T23:47:24.100Z,1.73
2023-04-15T23:50:28.287Z,1.60
2023-04-15T23:53:31.385Z,1.30
2023-04-15T23:56:35.633Z,1.60
2023-04-15T23:59:38.423Z,1.77
